Time;durP1;ratioP1;P1;durP2;ratioP2;P2;SDS_P1;SDS_P2;PMS_P1;PMS_P2;Temp;Humidity;BMP_temperature;BMP_pressure;BME280_temperature;BME280_humidity;BME280_pressure;Samples;Min_cycle;Max_cycle;Signal;HPM_P1;HPM_P2
2024/02/12 00:01:03;;;;;;;228.07;60.93;;;;;;;;;;4984506;28;20176;-46
2024/02/12 00:03:31;;;;;;;228.10;60.08;;;;;;;;;;4982905;28;20540;-46
2024/02/12 00:05:57;;;;;;;229.05;61.08;;;;;;;;;;4982538;28;20205;-46
2024/02/12 00:08:23;;;;;;;232.07;62.53;;;;;;;;;;4982637;28;20178;-46
2024/02/12 00:10:49;;;;;;;227.67;61.00;;;;;;;;;;4988086;28;20180;-46
2024/02/12 00:13:17;;;;;;;229.50;61.50;;;;;;;;;;4983249;28;20423;-46
2024/02/12 00:15:45;;;;;;;231.23;62.95;;;;;;;;;;4979479;28;20243;-46
2024/02/12 00:18:11;;;;;;;227.05;60.45;;;;;;;;;;4981763;28;20184;-46
2024/02/12 00:20:37;;;;;;;229.10;61.20;;;;;;;;;;4982418;28;20170;-46
2024/02/12 00:23:03;;;;;;;227.23;59.10;;;;;;;;;;4986095;28;20652;-46
2024/02/12 00:25:29;;;;;;;229.63;60.70;;;;;;;;;;4983596;28;20460;-46
2024/02/12 00:27:55;;;;;;;228.52;60.80;;;;;;;;;;4985757;28;20181;-46
2024/02/12 00:30:21;;;;;;;229.98;61.35;;;;;;;;;;4981628;28;20663;-46
2024/02/12 00:32:48;;;;;;;231.90;63.10;;;;;;;;;;4977896;28;20189;-46
2024/02/12 00:35:15;;;;;;;235.50;66.30;;;;;;;;;;4985032;28;20186;-46
2024/02/12 00:37:41;;;;;;;227.65;59.90;;;;;;;;;;4982802;28;20173;-46
2024/02/12 00:40:08;;;;;;;229.90;61.53;;;;;;;;;;4985056;28;20250;-46
2024/02/12 00:42:34;;;;;;;227.35;60.25;;;;;;;;;;4982125;28;20176;-46
2024/02/12 00:45:01;;;;;;;228.57;60.70;;;;;;;;;;4983964;28;20207;-46
2024/02/12 00:47:26;;;;;;;230.23;60.95;;;;;;;;;;4981224;28;20199;-46
2024/02/12 00:49:53;;;;;;;228.73;60.50;;;;;;;;;;4983410;28;20184;-46
2024/02/12 00:52:19;;;;;;;231.57;61.65;;;;;;;;;;4980298;28;20959;-46
2024/02/12 00:54:45;;;;;;;225.93;58.17;;;;;;;;;;4979098;28;20186;-46
2024/02/12 00:57:11;;;;;;;227.52;59.10;;;;;;;;;;4988190;28;20435;-46
2024/02/12 00:59:40;;;;;;;230.20;61.22;;;;;;;;;;4981976;28;20664;-46
2024/02/12 01:02:08;;;;;;;230.05;60.83;;;;;;;;;;4974371;28;20227;-46
2024/02/12 01:04:34;;;;;;;227.90;59.38;;;;;;;;;;4981464;28;20197;-46
2024/02/12 01:07:00;;;;;;;227.10;59.70;;;;;;;;;;4991833;28;20219;-46
2024/02/12 01:09:27;;;;;;;228.37;60.17;;;;;;;;;;4987812;28;20405;-46
2024/02/12 01:11:55;;;;;;;229.95;61.55;;;;;;;;;;4974789;28;20408;-46
2024/02/12 01:14:21;;;;;;;230.45;60.40;;;;;;;;;;4992987;28;20172;-46
2024/02/12 01:16:47;;;;;;;231.90;63.35;;;;;;;;;;4975269;28;20201;-46
2024/02/12 01:19:14;;;;;;;229.47;61.80;;;;;;;;;;4986359;28;20260;-46
2024/02/12 01:21:40;;;;;;;228.63;60.35;;;;;;;;;;4984018;28;20420;-46
2024/02/12 01:24:06;;;;;;;230.17;61.60;;;;;;;;;;4978234;28;20212;-46
2024/02/12 01:26:36;;;;;;;231.68;62.35;;;;;;;;;;4991135;28;20420;-46
2024/02/12 01:29:03;;;;;;;227.90;60.55;;;;;;;;;;4973302;28;20169;-46
2024/02/12 01:31:29;;;;;;;230.20;62.33;;;;;;;;;;4990438;28;20671;-46
2024/02/12 01:33:56;;;;;;;228.83;60.90;;;;;;;;;;4979382;28;20189;-46
2024/02/12 01:36:22;;;;;;;230.60;62.83;;;;;;;;;;4982255;28;20535;-46
2024/02/12 01:38:47;;;;;;;230.55;61.58;;;;;;;;;;4987158;28;20705;-46
2024/02/12 01:41:16;;;;;;;230.57;61.40;;;;;;;;;;4973329;28;20183;-46
2024/02/12 01:43:42;;;;;;;230.55;62.05;;;;;;;;;;4992540;28;20559;-46
2024/02/12 01:46:09;;;;;;;229.70;60.50;;;;;;;;;;4974881;28;20685;-46
2024/02/12 01:48:35;;;;;;;229.20;60.80;;;;;;;;;;4986076;28;20259;-46
2024/02/12 01:51:06;;;;;;;230.20;61.55;;;;;;;;;;4982939;28;20177;-46
2024/02/12 01:53:42;;;;;;;232.05;62.63;;;;;;;;;;4972858;28;20173;-46
2024/02/12 01:56:11;;;;;;;232.30;62.60;;;;;;;;;;4975619;28;20243;-45
2024/02/12 01:58:40;;;;;;;229.05;61.72;;;;;;;;;;4992061;28;20184;-46
2024/02/12 02:01:07;;;;;;;234.73;64.78;;;;;;;;;;4991731;28;20188;-46
2024/02/12 02:03:33;;;;;;;227.00;60.38;;;;;;;;;;4975818;28;20176;-46
2024/02/12 02:06:01;;;;;;;229.63;62.47;;;;;;;;;;4982804;28;20196;-46
2024/02/12 02:08:37;;;;;;;230.18;62.80;;;;;;;;;;4977197;28;20434;-46
2024/02/12 02:11:06;;;;;;;229.18;61.83;;;;;;;;;;4986015;28;20180;-46
2024/02/12 02:13:33;;;;;;;228.32;61.63;;;;;;;;;;4983783;28;20208;-46
2024/02/12 02:16:00;;;;;;;230.75;62.80;;;;;;;;;;4977959;28;20270;-46
2024/02/12 02:18:26;;;;;;;230.10;61.50;;;;;;;;;;4984414;28;20184;-46
2024/02/12 02:20:52;;;;;;;227.10;60.60;;;;;;;;;;4982310;28;20190;-46
2024/02/12 02:23:18;;;;;;;225.90;59.33;;;;;;;;;;4983788;28;20411;-45
2024/02/12 02:25:44;;;;;;;227.23;60.20;;;;;;;;;;4980827;28;20563;-46
2024/02/12 02:28:11;;;;;;;227.40;60.43;;;;;;;;;;4982995;28;20420;-46
2024/02/12 02:30:39;;;;;;;229.02;61.33;;;;;;;;;;4982630;28;20419;-46
2024/02/12 02:33:05;;;;;;;226.73;60.22;;;;;;;;;;4976986;28;20169;-45
2024/02/12 02:35:31;;;;;;;228.47;61.37;;;;;;;;;;4983445;28;20255;-45
2024/02/12 02:38:01;;;;;;;230.05;61.08;;;;;;;;;;4981134;28;20454;-46
2024/02/12 02:40:27;;;;;;;231.25;63.28;;;;;;;;;;4980905;28;20165;-46
2024/02/12 02:42:53;;;;;;;226.97;60.10;;;;;;;;;;4982313;28;20201;-46
2024/02/12 02:45:19;;;;;;;230.82;61.80;;;;;;;;;;4979747;28;20855;-46
2024/02/12 02:47:45;;;;;;;226.37;60.97;;;;;;;;;;4980892;28;20267;-46
2024/02/12 02:50:11;;;;;;;228.27;59.70;;;;;;;;;;4979958;28;20995;-46
2024/02/12 02:52:39;;;;;;;228.77;61.50;;;;;;;;;;4987849;28;20773;-46
2024/02/12 02:55:06;;;;;;;227.38;61.55;;;;;;;;;;4983874;28;20181;-46
2024/02/12 02:57:34;;;;;;;227.18;59.55;;;;;;;;;;4983086;28;20205;-46
2024/02/12 03:00:05;;;;;;;228.80;61.03;;;;;;;;;;4985080;28;20874;-46
2024/02/12 03:02:31;;;;;;;228.10;59.58;;;;;;;;;;4988338;28;20704;-46
2024/02/12 03:04:57;;;;;;;226.80;59.10;;;;;;;;;;4986553;28;20200;-46
2024/02/12 03:07:23;;;;;;;227.00;59.60;;;;;;;;;;4986559;28;20288;-46
2024/02/12 03:09:49;;;;;;;227.90;59.80;;;;;;;;;;4988347;28;20412;-46
2024/02/12 03:12:15;;;;;;;227.30;59.55;;;;;;;;;;4983365;28;20418;-46
2024/02/12 03:14:41;;;;;;;226.20;57.85;;;;;;;;;;4979924;28;20199;-46
2024/02/12 03:17:07;;;;;;;226.57;58.63;;;;;;;;;;4986647;28;20199;-46
2024/02/12 03:19:33;;;;;;;227.97;59.00;;;;;;;;;;4985303;28;20706;-47
2024/02/12 03:21:59;;;;;;;227.20;58.50;;;;;;;;;;4986720;28;20514;-46
2024/02/12 03:24:27;;;;;;;229.50;60.70;;;;;;;;;;4984561;28;20470;-46
2024/02/12 03:26:53;;;;;;;226.25;58.78;;;;;;;;;;4985673;28;20423;-46
2024/02/12 03:29:19;;;;;;;228.27;59.90;;;;;;;;;;4982325;28;20165;-46
2024/02/12 03:31:46;;;;;;;223.45;57.75;;;;;;;;;;4985460;28;20180;-46
2024/02/12 03:34:13;;;;;;;227.05;58.40;;;;;;;;;;4985920;28;20595;-46
2024/02/12 03:36:43;;;;;;;228.63;60.63;;;;;;;;;;4982491;28;20217;-46
2024/02/12 03:39:10;;;;;;;230.82;61.53;;;;;;;;;;4985103;28;20173;-46
2024/02/12 03:41:36;;;;;;;228.02;59.63;;;;;;;;;;4983105;28;20168;-46
2024/02/12 03:44:03;;;;;;;227.32;59.22;;;;;;;;;;4984180;28;20205;-46
2024/02/12 03:46:31;;;;;;;227.77;59.65;;;;;;;;;;4982701;28;20280;-46
2024/02/12 03:59:58;;;;;;;225.50;58.58;;;;;;;;;;4983220;28;20258;-46
2024/02/12 04:02:24;;;;;;;229.90;60.85;;;;;;;;;;4987045;28;20184;-46
2024/02/12 04:04:50;;;;;;;225.35;58.28;;;;;;;;;;4981455;28;20212;-46
2024/02/12 04:07:17;;;;;;;227.95;60.35;;;;;;;;;;4985431;28;20640;-46
2024/02/12 04:09:43;;;;;;;228.20;59.13;;;;;;;;;;4993547;28;20184;-46
2024/02/12 04:12:13;;;;;;;227.70;58.20;;;;;;;;;;4983103;28;20641;-46
2024/02/12 04:14:42;;;;;;;228.95;59.53;;;;;;;;;;4981396;28;20181;-46
2024/02/12 04:17:14;;;;;;;227.13;57.58;;;;;;;;;;4989850;28;20227;-46
2024/02/12 04:19:41;;;;;;;230.85;60.72;;;;;;;;;;4975219;28;20176;-46
2024/02/12 04:22:10;;;;;;;228.27;58.67;;;;;;;;;;4994246;28;20169;-46
2024/02/12 04:24:40;;;;;;;227.82;59.00;;;;;;;;;;4977099;28;20197;-46
2024/02/12 04:27:07;;;;;;;232.32;61.75;;;;;;;;;;4986701;28;20553;-46
2024/02/12 04:29:33;;;;;;;228.77;58.95;;;;;;;;;;4983687;28;20182;-46
2024/02/12 04:32:02;;;;;;;228.02;58.00;;;;;;;;;;4969028;28;20179;-47
2024/02/12 04:34:28;;;;;;;232.10;61.25;;;;;;;;;;4956399;28;20541;-45
2024/02/12 04:36:55;;;;;;;227.65;58.97;;;;;;;;;;4973821;28;20190;-46
2024/02/12 04:39:21;;;;;;;230.55;60.10;;;;;;;;;;4956916;28;20169;-46
2024/02/12 04:41:51;;;;;;;227.93;59.00;;;;;;;;;;4967966;28;20646;-46
2024/02/12 04:44:17;;;;;;;228.30;58.75;;;;;;;;;;4964315;28;20193;-46
2024/02/12 04:46:43;;;;;;;229.53;60.20;;;;;;;;;;4960550;28;20204;-47
2024/02/12 04:49:09;;;;;;;229.57;59.60;;;;;;;;;;4972543;28;20420;-46
2024/02/12 04:51:38;;;;;;;228.70;60.30;;;;;;;;;;4960807;28;20397;-45
2024/02/12 04:54:04;;;;;;;230.15;60.72;;;;;;;;;;4973511;28;20186;-45
2024/02/12 04:56:30;;;;;;;228.00;58.80;;;;;;;;;;4973034;28;20755;-46
2024/02/12 04:58:57;;;;;;;226.40;58.73;;;;;;;;;;4964067;28;20236;-46
2024/02/12 05:01:26;;;;;;;228.32;59.72;;;;;;;;;;4960039;28;20424;-46
2024/02/12 05:03:52;;;;;;;229.63;60.53;;;;;;;;;;4971360;28;20173;-46
2024/02/12 05:06:18;;;;;;;229.38;59.63;;;;;;;;;;4954117;28;20201;-46
2024/02/12 05:08:45;;;;;;;227.30;58.97;;;;;;;;;;4971924;28;20260;-45
2024/02/12 05:11:16;;;;;;;226.90;58.65;;;;;;;;;;4959761;28;20197;-46
2024/02/12 05:13:43;;;;;;;227.73;57.67;;;;;;;;;;4964567;28;20182;-45
2024/02/12 05:16:09;;;;;;;228.13;59.05;;;;;;;;;;4966669;28;20197;-45
2024/02/12 05:24:05;;;;;;;228.02;59.35;;;;;;;;;;4954059;28;20241;-45
2024/02/12 05:26:31;;;;;;;231.90;63.47;;;;;;;;;;4972398;28;20201;-46
2024/02/12 05:28:58;;;;;;;227.00;59.22;;;;;;;;;;4958366;28;20192;-45
2024/02/12 05:31:24;;;;;;;227.30;57.72;;;;;;;;;;4964936;28;20623;-45
2024/02/12 05:33:50;;;;;;;227.38;58.42;;;;;;;;;;4965874;28;20192;-45
2024/02/12 05:36:18;;;;;;;230.20;62.25;;;;;;;;;;4956654;28;20224;-45
2024/02/12 05:38:46;;;;;;;228.90;59.63;;;;;;;;;;4973049;28;20161;-45
2024/02/12 05:41:12;;;;;;;230.18;60.72;;;;;;;;;;4954166;28;20266;-46
2024/02/12 05:43:39;;;;;;;228.80;60.70;;;;;;;;;;4968928;28;20208;-46
2024/02/12 05:46:05;;;;;;;231.50;63.10;;;;;;;;;;4961740;28;20209;-46
2024/02/12 05:48:31;;;;;;;229.30;60.33;;;;;;;;;;4960793;28;20180;-46
2024/02/12 05:50:58;;;;;;;230.70;62.40;;;;;;;;;;4969575;28;20186;-46
2024/02/12 05:53:26;;;;;;;230.70;62.08;;;;;;;;;;4965313;28;20401;-46
2024/02/12 05:55:52;;;;;;;230.77;63.78;;;;;;;;;;4972504;28;20199;-46
2024/02/12 05:58:18;;;;;;;229.75;62.72;;;;;;;;;;4972108;28;20193;-46
2024/02/12 06:00:46;;;;;;;231.00;63.67;;;;;;;;;;4961523;28;20746;-46
2024/02/12 06:03:12;;;;;;;230.23;62.88;;;;;;;;;;4960852;28;20184;-46
2024/02/12 06:05:38;;;;;;;233.23;65.43;;;;;;;;;;4968678;28;20245;-46
2024/02/12 06:08:05;;;;;;;231.03;62.27;;;;;;;;;;4953213;28;20167;-46
2024/02/12 06:10:31;;;;;;;230.52;62.60;;;;;;;;;;4972157;28;20417;-46
2024/02/12 06:12:58;;;;;;;231.40;63.08;;;;;;;;;;4957629;28;20172;-46
2024/02/12 06:15:24;;;;;;;229.98;62.75;;;;;;;;;;4964366;28;20203;-46
2024/02/12 06:17:50;;;;;;;228.30;61.83;;;;;;;;;;4965190;28;20183;-46
2024/02/12 06:20:16;;;;;;;230.18;62.83;;;;;;;;;;4956180;28;20430;-46
2024/02/12 06:22:42;;;;;;;229.50;61.17;;;;;;;;;;4972306;28;20184;-46
2024/02/12 06:25:09;;;;;;;235.52;67.22;;;;;;;;;;4953322;28;20555;-46
2024/02/12 06:27:35;;;;;;;228.98;60.28;;;;;;;;;;4966924;28;20624;-46
2024/02/12 06:30:03;;;;;;;229.18;60.90;;;;;;;;;;4961419;28;20169;-46
2024/02/12 06:32:29;;;;;;;231.05;62.63;;;;;;;;;;4959810;28;20227;-46
2024/02/12 06:34:55;;;;;;;232.20;62.80;;;;;;;;;;4969080;28;20752;-46
2024/02/12 06:37:21;;;;;;;229.93;61.08;;;;;;;;;;4952946;28;20225;-46
2024/02/12 06:39:47;;;;;;;229.70;62.47;;;;;;;;;;4970689;28;20217;-46
2024/02/12 06:42:13;;;;;;;230.05;62.17;;;;;;;;;;4957278;28;20420;-46
2024/02/12 06:44:40;;;;;;;231.82;64.60;;;;;;;;;;4962958;28;20203;-46
2024/02/12 06:47:08;;;;;;;229.98;62.35;;;;;;;;;;4965138;28;20221;-46
2024/02/12 06:49:34;;;;;;;230.32;62.40;;;;;;;;;;4955493;28;20652;-46
2024/02/12 06:52:00;;;;;;;230.07;61.65;;;;;;;;;;4971942;28;20175;-46
2024/02/12 06:54:26;;;;;;;228.20;60.20;;;;;;;;;;4971562;28;20186;-46
2024/02/12 06:56:52;;;;;;;227.03;59.13;;;;;;;;;;4957179;28;20445;-46
2024/02/12 06:59:18;;;;;;;226.23;58.40;;;;;;;;;;4963201;28;20471;-46
2024/02/12 07:01:44;;;;;;;228.97;61.60;;;;;;;;;;4965594;28;20431;-46
2024/02/12 07:04:10;;;;;;;228.20;60.20;;;;;;;;;;4954949;28;20471;-46
2024/02/12 07:06:36;;;;;;;229.00;61.27;;;;;;;;;;4971558;28;20419;-46
2024/02/12 07:09:02;;;;;;;229.30;60.40;;;;;;;;;;4954286;28;20467;-46
2024/02/12 07:11:28;;;;;;;228.25;59.13;;;;;;;;;;4966489;28;20444;-46
2024/02/12 07:13:54;;;;;;;227.57;59.60;;;;;;;;;;4961973;28;20264;-46
2024/02/12 07:16:20;;;;;;;227.00;59.40;;;;;;;;;;4958037;28;20498;-46
2024/02/12 07:18:47;;;;;;;229.52;60.30;;;;;;;;;;4969714;28;20497;-46
2024/02/12 07:21:16;;;;;;;228.52;59.63;;;;;;;;;;4952819;28;20228;-46
2024/02/12 07:23:42;;;;;;;229.85;60.47;;;;;;;;;;4970173;28;20204;-46
2024/02/12 07:26:08;;;;;;;230.13;61.30;;;;;;;;;;4957837;28;20212;-46
2024/02/12 07:28:36;;;;;;;231.63;62.60;;;;;;;;;;4973409;28;20258;-46
2024/02/12 07:31:03;;;;;;;229.60;59.63;;;;;;;;;;4979618;28;20413;-46
2024/02/12 07:33:30;;;;;;;230.18;61.97;;;;;;;;;;4977849;28;20205;-46
2024/02/12 07:35:56;;;;;;;229.23;60.60;;;;;;;;;;4982013;28;21312;-46
2024/02/12 07:38:22;;;;;;;228.57;60.33;;;;;;;;;;4981095;28;20272;-46
2024/02/12 07:40:49;;;;;;;230.27;62.47;;;;;;;;;;4984595;28;20726;-46
2024/02/12 07:43:15;;;;;;;230.90;61.80;;;;;;;;;;4983117;28;20456;-46
2024/02/12 07:45:43;;;;;;;229.27;60.70;;;;;;;;;;4983274;28;20813;-45
2024/02/12 07:48:09;;;;;;;232.27;62.10;;;;;;;;;;4987770;28;20436;-46
2024/02/12 07:50:37;;;;;;;228.83;61.53;;;;;;;;;;4987196;28;20674;-46
2024/02/12 07:53:03;;;;;;;230.77;62.08;;;;;;;;;;4980994;28;20695;-46
2024/02/12 07:55:29;;;;;;;232.55;63.80;;;;;;;;;;4979865;28;20181;-46
2024/02/12 07:57:55;;;;;;;231.00;62.90;;;;;;;;;;4979047;28;20284;-46
2024/02/12 08:00:21;;;;;;;232.87;63.60;;;;;;;;;;4986895;28;20791;-46
2024/02/12 08:02:46;;;;;;;232.67;64.70;;;;;;;;;;4984127;28;20405;-46
2024/02/12 08:05:13;;;;;;;234.10;66.10;;;;;;;;;;4983777;28;20468;-46
2024/02/12 08:07:39;;;;;;;230.45;62.20;;;;;;;;;;4985018;28;20416;-46
2024/02/12 08:10:05;;;;;;;234.55;65.68;;;;;;;;;;4979485;28;20275;-46
2024/02/12 08:12:31;;;;;;;233.70;64.85;;;;;;;;;;4985782;28;20177;-46
2024/02/12 08:14:57;;;;;;;232.50;65.72;;;;;;;;;;4980791;28;20195;-46
2024/02/12 08:17:26;;;;;;;235.13;68.28;;;;;;;;;;4981795;28;20189;-46
2024/02/12 08:19:52;;;;;;;235.52;66.20;;;;;;;;;;4984498;28;20173;-46
2024/02/12 08:22:18;;;;;;;231.18;63.90;;;;;;;;;;4986444;28;20222;-46
2024/02/12 08:24:44;;;;;;;232.25;62.75;;;;;;;;;;4984560;28;20200;-46
2024/02/12 08:27:10;;;;;;;230.83;63.33;;;;;;;;;;4981601;28;20201;-46
2024/02/12 08:29:36;;;;;;;229.57;61.53;;;;;;;;;;4988308;28;20412;-46
2024/02/12 08:32:03;;;;;;;230.93;63.75;;;;;;;;;;4982193;28;20896;-46
2024/02/12 08:34:30;;;;;;;236.55;67.40;;;;;;;;;;4985095;28;20256;-46
2024/02/12 08:36:56;;;;;;;234.50;66.22;;;;;;;;;;4991485;28;20219;-46
2024/02/12 08:39:22;;;;;;;231.03;62.90;;;;;;;;;;4978246;28;20177;-46
2024/02/12 08:41:49;;;;;;;231.73;64.53;;;;;;;;;;4973711;28;20468;-45
2024/02/12 08:44:16;;;;;;;230.23;62.28;;;;;;;;;;4966600;28;20670;-45
2024/02/12 08:46:44;;;;;;;235.20;68.03;;;;;;;;;;4956622;28;20190;-45
2024/02/12 08:49:11;;;;;;;236.80;68.43;;;;;;;;;;4971752;28;20643;-46
2024/02/12 08:51:37;;;;;;;234.13;66.10;;;;;;;;;;4952597;28;20205;-46
2024/02/12 08:54:03;;;;;;;231.77;65.57;;;;;;;;;;4970694;28;20205;-46
2024/02/12 08:56:31;;;;;;;232.38;64.78;;;;;;;;;;4962167;28;20233;-46
2024/02/12 08:58:57;;;;;;;233.57;65.28;;;;;;;;;;4963904;28;20278;-48
2024/02/12 09:01:23;;;;;;;231.43;63.87;;;;;;;;;;4971223;28;20476;-46
2024/02/12 09:03:49;;;;;;;231.38;63.40;;;;;;;;;;4956008;28;20886;-47
2024/02/12 09:06:16;;;;;;;234.93;68.57;;;;;;;;;;4971909;28;20220;-48
2024/02/12 09:08:45;;;;;;;236.35;68.57;;;;;;;;;;4973590;28;20429;-46
2024/02/12 09:11:12;;;;;;;236.25;68.55;;;;;;;;;;4961580;28;20185;-46
2024/02/12 09:13:46;;;;;;;236.98;69.57;;;;;;;;;;4961688;28;20598;-46
2024/02/12 09:16:17;;;;;;;240.77;72.18;;;;;;;;;;4969777;28;20927;-47
2024/02/12 09:18:44;;;;;;;239.15;71.40;;;;;;;;;;4956007;28;20542;-47
2024/02/12 09:21:12;;;;;;;232.75;65.85;;;;;;;;;;4975695;28;20621;-48
2024/02/12 09:23:38;;;;;;;239.30;76.40;;;;;;;;;;4965767;28;20619;-46
2024/02/12 09:26:07;;;;;;;234.83;72.13;;;;;;;;;;4960869;28;20218;-45
2024/02/12 09:28:33;;;;;;;232.60;64.70;;;;;;;;;;4965269;28;20412;-48
2024/02/12 09:31:02;;;;;;;233.32;65.30;;;;;;;;;;4969057;28;20210;-48
2024/02/12 09:33:29;;;;;;;231.95;63.47;;;;;;;;;;4957159;28;20693;-48
2024/02/12 09:35:55;;;;;;;232.73;66.90;;;;;;;;;;4974345;28;20194;-46
2024/02/12 09:38:21;;;;;;;230.43;62.55;;;;;;;;;;4956431;28;20182;-47
2024/02/12 09:40:48;;;;;;;230.77;63.83;;;;;;;;;;4967933;28;20177;-46
2024/02/12 09:43:14;;;;;;;234.50;66.53;;;;;;;;;;4963806;28;20186;-47
2024/02/12 09:45:44;;;;;;;234.68;65.30;;;;;;;;;;4959721;28;20252;-46
2024/02/12 09:48:11;;;;;;;235.38;66.47;;;;;;;;;;4971067;28;20544;-48
2024/02/12 09:50:38;;;;;;;234.45;64.55;;;;;;;;;;4954460;28;20173;-46
2024/02/12 09:53:07;;;;;;;236.73;68.05;;;;;;;;;;4972095;28;20185;-47
2024/02/12 09:55:33;;;;;;;236.50;67.30;;;;;;;;;;4972613;28;20669;-48
2024/02/12 09:57:59;;;;;;;236.02;68.35;;;;;;;;;;4962565;28;20329;-46
2024/02/12 10:00:25;;;;;;;232.27;64.70;;;;;;;;;;4960771;28;20265;-46
2024/02/12 10:02:55;;;;;;;234.25;66.35;;;;;;;;;;4970173;28;20425;-49
2024/02/12 10:05:22;;;;;;;239.05;68.35;;;;;;;;;;4954162;28;20202;-47
2024/02/12 10:07:50;;;;;;;233.82;65.88;;;;;;;;;;4973023;28;20249;-47
2024/02/12 10:10:17;;;;;;;235.35;65.40;;;;;;;;;;4958646;28;20174;-47
2024/02/12 10:12:43;;;;;;;233.48;65.50;;;;;;;;;;4965279;28;20177;-47
2024/02/12 10:15:13;;;;;;;238.48;69.82;;;;;;;;;;4966281;28;20202;-46
2024/02/12 10:17:40;;;;;;;235.68;66.80;;;;;;;;;;4957764;28;20533;-46
2024/02/12 10:20:09;;;;;;;235.35;65.88;;;;;;;;;;4974036;28;20195;-46
2024/02/12 10:22:36;;;;;;;235.63;66.72;;;;;;;;;;4953901;28;20174;-48
2024/02/12 10:25:04;;;;;;;236.48;67.78;;;;;;;;;;4969449;28;20207;-47
2024/02/12 10:27:30;;;;;;;241.10;70.63;;;;;;;;;;4962124;28;20664;-47
2024/02/12 10:30:05;;;;;;;242.10;71.97;;;;;;;;;;4970841;28;20212;-48
2024/02/12 10:32:34;;;;;;;245.80;76.13;;;;;;;;;;4966644;28;20925;-48
2024/02/12 10:35:02;;;;;;;242.35;76.78;;;;;;;;;;4966999;28;20200;-47
2024/02/12 10:37:28;;;;;;;241.70;75.20;;;;;;;;;;4973411;28;20250;-47
2024/02/12 10:39:55;;;;;;;241.70;76.07;;;;;;;;;;4955957;28;20201;-48
2024/02/12 10:42:36;;;;;;;240.10;73.07;;;;;;;;;;4967237;28;20182;-48
2024/02/12 10:45:06;;;;;;;240.98;75.90;;;;;;;;;;4961562;28;20681;-46
2024/02/12 10:47:32;;;;;;;242.90;74.32;;;;;;;;;;4970146;28;20228;-46
2024/02/12 10:50:01;;;;;;;239.38;72.32;;;;;;;;;;4969436;28;20204;-47
2024/02/12 10:52:27;;;;;;;236.98;68.85;;;;;;;;;;4957661;28;20180;-47
2024/02/12 10:54:53;;;;;;;242.90;74.18;;;;;;;;;;4973659;28;20354;-47
2024/02/12 10:57:20;;;;;;;237.60;71.13;;;;;;;;;;4961411;28;20197;-48
2024/02/12 11:00:00;;;;;;;237.55;69.60;;;;;;;;;;4972716;28;20599;-47
2024/02/12 11:02:27;;;;;;;237.23;71.22;;;;;;;;;;4972482;28;20701;-48
2024/02/12 11:04:56;;;;;;;236.63;68.25;;;;;;;;;;4972129;28;20209;-47
2024/02/12 11:07:27;;;;;;;237.27;69.00;;;;;;;;;;4971596;28;20212;-46
2024/02/12 11:10:09;;;;;;;240.43;72.03;;;;;;;;;;4968145;28;20178;-46
2024/02/12 11:12:40;;;;;;;238.10;69.65;;;;;;;;;;4972427;28;20200;-46
2024/02/12 11:15:12;;;;;;;242.35;74.82;;;;;;;;;;4974652;28;20179;-48
2024/02/12 11:17:38;;;;;;;240.18;72.53;;;;;;;;;;4976372;28;20178;-48
2024/02/12 11:20:05;;;;;;;237.65;71.60;;;;;;;;;;4976022;28;20178;-48
2024/02/12 11:22:33;;;;;;;240.18;72.72;;;;;;;;;;4975769;28;20651;-47
2024/02/12 11:24:59;;;;;;;241.43;73.57;;;;;;;;;;4975722;28;20217;-46
2024/02/12 11:27:31;;;;;;;240.93;73.50;;;;;;;;;;4972758;28;20412;-46
2024/02/12 11:29:59;;;;;;;237.88;72.07;;;;;;;;;;4976529;28;20178;-46
2024/02/12 11:32:25;;;;;;;238.45;70.50;;;;;;;;;;4977705;28;20169;-48
2024/02/12 11:34:52;;;;;;;239.10;73.30;;;;;;;;;;4976279;28;20200;-46
2024/02/12 11:37:18;;;;;;;235.80;69.38;;;;;;;;;;4976457;28;20749;-46
2024/02/12 11:39:55;;;;;;;234.23;65.75;;;;;;;;;;4977059;28;20197;-46
2024/02/12 11:42:23;;;;;;;236.50;69.65;;;;;;;;;;4976463;28;20268;-46
2024/02/12 11:44:49;;;;;;;234.10;66.35;;;;;;;;;;4974990;28;20285;-46
2024/02/12 11:47:24;;;;;;;246.48;78.22;;;;;;;;;;4972873;28;20198;-46
2024/02/12 11:49:53;;;;;;;234.85;66.07;;;;;;;;;;4968308;28;20200;-46
2024/02/12 11:52:21;;;;;;;230.80;62.80;;;;;;;;;;4976214;28;20617;-46
2024/02/12 11:54:47;;;;;;;234.02;65.85;;;;;;;;;;4973877;28;20207;-46
2024/02/12 11:57:13;;;;;;;237.23;68.70;;;;;;;;;;4972310;28;20198;-46
2024/02/12 11:59:39;;;;;;;233.38;66.03;;;;;;;;;;4975638;28;20189;-46
2024/02/12 12:02:05;;;;;;;234.98;66.53;;;;;;;;;;4974232;28;20578;-47
2024/02/12 12:04:34;;;;;;;235.05;66.53;;;;;;;;;;4975807;28;20575;-48
2024/02/12 12:07:00;;;;;;;236.20;70.28;;;;;;;;;;4966170;28;20194;-48
2024/02/12 12:09:28;;;;;;;236.47;68.77;;;;;;;;;;4962889;28;20212;-48
2024/02/12 12:11:57;;;;;;;239.13;71.63;;;;;;;;;;4973227;28;20415;-48
2024/02/12 12:14:24;;;;;;;238.27;71.22;;;;;;;;;;4964795;28;20561;-46
2024/02/12 12:16:51;;;;;;;237.35;70.38;;;;;;;;;;4973446;28;20618;-48
2024/02/12 12:19:17;;;;;;;233.10;66.32;;;;;;;;;;4974217;28;20181;-48
2024/02/12 12:21:44;;;;;;;237.37;68.87;;;;;;;;;;4975391;28;20669;-46
2024/02/12 12:24:11;;;;;;;240.80;72.00;;;;;;;;;;4974684;28;20417;-47
2024/02/12 12:26:37;;;;;;;240.55;72.88;;;;;;;;;;4974378;28;20201;-46
2024/02/12 12:29:05;;;;;;;235.93;68.73;;;;;;;;;;4975745;28;20170;-47
2024/02/12 12:31:32;;;;;;;236.80;68.82;;;;;;;;;;4975261;28;20410;-47
2024/02/12 12:33:58;;;;;;;237.50;69.82;;;;;;;;;;4961516;28;20175;-47
2024/02/12 12:36:24;;;;;;;241.83;74.60;;;;;;;;;;4966032;28;20205;-46
2024/02/12 12:38:49;;;;;;;244.13;74.10;;;;;;;;;;4968322;28;20419;-48
2024/02/12 12:41:16;;;;;;;247.47;79.37;;;;;;;;;;4957825;28;21158;-48
2024/02/12 12:43:42;;;;;;;250.27;83.57;;;;;;;;;;4974442;28;20779;-47
2024/02/12 12:46:08;;;;;;;249.80;82.50;;;;;;;;;;4972431;28;20211;-48
2024/02/12 12:48:35;;;;;;;251.05;84.15;;;;;;;;;;4972284;28;20417;-49
2024/02/12 12:51:01;;;;;;;250.57;83.15;;;;;;;;;;4973571;28;20604;-48
2024/02/12 12:53:27;;;;;;;252.13;87.47;;;;;;;;;;4973415;28;20167;-47
2024/02/12 12:55:53;;;;;;;254.60;90.38;;;;;;;;;;4971430;28;20910;-49
2024/02/12 12:58:19;;;;;;;249.97;86.00;;;;;;;;;;4954695;28;20280;-49
2024/02/12 13:00:46;;;;;;;250.70;84.03;;;;;;;;;;4972522;28;20758;-49
2024/02/12 13:03:12;;;;;;;255.40;90.28;;;;;;;;;;4973631;28;20185;-49
2024/02/12 13:05:41;;;;;;;255.43;91.00;;;;;;;;;;4964008;28;20605;-49
2024/02/12 13:08:10;;;;;;;253.18;89.88;;;;;;;;;;4960428;28;20229;-47
2024/02/12 13:10:37;;;;;;;253.65;89.03;;;;;;;;;;4971117;28;20266;-49
2024/02/12 13:13:04;;;;;;;249.93;85.20;;;;;;;;;;4954343;28;20175;-47
2024/02/12 13:15:30;;;;;;;249.95;85.65;;;;;;;;;;4972467;28;20181;-46
2024/02/12 13:17:57;;;;;;;250.63;86.45;;;;;;;;;;4959755;28;20258;-46
2024/02/12 13:20:24;;;;;;;249.30;83.75;;;;;;;;;;4964776;28;20182;-48
2024/02/12 13:22:57;;;;;;;249.98;83.72;;;;;;;;;;4967061;28;20180;-49
2024/02/12 13:25:27;;;;;;;248.60;84.00;;;;;;;;;;4957504;28;20553;-48
2024/02/12 13:27:59;;;;;;;247.88;83.25;;;;;;;;;;4973339;28;20232;-48
2024/02/12 13:30:26;;;;;;;246.50;80.07;;;;;;;;;;4954701;28;20172;-46
2024/02/12 13:32:52;;;;;;;246.60;80.57;;;;;;;;;;4970906;28;20174;-46
2024/02/12 13:35:19;;;;;;;246.93;81.50;;;;;;;;;;4961313;28;20322;-45
2024/02/12 13:37:45;;;;;;;246.70;81.80;;;;;;;;;;4962782;28;20420;-47
2024/02/12 13:40:17;;;;;;;243.82;78.47;;;;;;;;;;4968938;28;20213;-48
2024/02/12 13:42:44;;;;;;;247.60;83.47;;;;;;;;;;4955445;28;20184;-48
2024/02/12 13:45:11;;;;;;;250.35;86.00;;;;;;;;;;4972652;28;20579;-47
2024/02/12 13:47:39;;;;;;;244.50;79.32;;;;;;;;;;4968533;28;20193;-48
2024/02/12 13:50:07;;;;;;;247.27;82.57;;;;;;;;;;4971028;28;20209;-48
2024/02/12 13:52:33;;;;;;;244.73;79.30;;;;;;;;;;4972159;28;20204;-48
2024/02/12 13:54:59;;;;;;;249.05;83.47;;;;;;;;;;4972489;28;20687;-48
2024/02/12 13:57:25;;;;;;;248.32;83.07;;;;;;;;;;4969981;28;20230;-48
2024/02/12 13:59:52;;;;;;;245.20;79.70;;;;;;;;;;4954117;28;20189;-47
2024/02/12 14:02:20;;;;;;;247.68;81.90;;;;;;;;;;4971007;28;20568;-48
2024/02/12 14:04:46;;;;;;;247.55;82.55;;;;;;;;;;4959523;28;20194;-46
2024/02/12 14:07:12;;;;;;;246.57;80.10;;;;;;;;;;4962540;28;20280;-48
2024/02/12 14:09:38;;;;;;;246.05;80.13;;;;;;;;;;4972144;28;20403;-47
2024/02/12 14:12:05;;;;;;;245.47;81.00;;;;;;;;;;4973256;28;20200;-46
2024/02/12 14:14:32;;;;;;;244.18;77.75;;;;;;;;;;4971035;28;20434;-47
2024/02/12 14:16:58;;;;;;;241.23;73.47;;;;;;;;;;4981488;28;20200;-45
2024/02/12 14:19:24;;;;;;;239.90;73.50;;;;;;;;;;4979502;28;20551;-46